sensor_id;sensor_type;location;lat;lon;timestamp;temperature;humidity
7447;DHT22;3765;47.962;7.952;2022-11-10T00:00:21;12.40;84.40
7447;DHT22;3765;47.962;7.952;2022-11-10T00:02:49;12.40;84.40
7447;DHT22;3765;47.962;7.952;2022-11-10T00:05:17;12.40;84.50
7447;DHT22;3765;47.962;7.952;2022-11-10T00:07:46;12.40;84.50
7447;DHT22;3765;47.962;7.952;2022-11-10T00:10:16;12.50;84.40
7447;DHT22;3765;47.962;7.952;2022-11-10T00:12:44;12.30;84.40
7447;DHT22;3765;47.962;7.952;2022-11-10T00:15:13;12.30;84.40
7447;DHT22;3765;47.962;7.952;2022-11-10T00:18:00;12.30;84.40
7447;DHT22;3765;47.962;7.952;2022-11-10T00:20:29;12.30;84.50
7447;DHT22;3765;47.962;7.952;2022-11-10T00:22:57;12.30;84.50
7447;DHT22;3765;47.962;7.952;2022-11-10T00:25:30;12.20;84.50
7447;DHT22;3765;47.962;7.952;2022-11-10T00:27:59;12.10;84.70
7447;DHT22;3765;47.962;7.952;2022-11-10T00:30:27;12.10;84.70
7447;DHT22;3765;47.962;7.952;2022-11-10T00:32:55;12.10;84.80
7447;DHT22;3765;47.962;7.952;2022-11-10T00:35:23;12.20;84.80
7447;DHT22;3765;47.962;7.952;2022-11-10T00:37:51;12.20;84.80
7447;DHT22;3765;47.962;7.952;2022-11-10T00:40:19;12.20;84.80
7447;DHT22;3765;47.962;7.952;2022-11-10T00:42:50;12.20;84.80
7447;DHT22;3765;47.962;7.952;2022-11-10T00:45:18;12.20;84.80
7447;DHT22;3765;47.962;7.952;2022-11-10T00:47:46;12.10;84.80
7447;DHT22;3765;47.962;7.952;2022-11-10T00:50:14;12.10;84.80
7447;DHT22;3765;47.962;7.952;2022-11-10T00:52:42;12.10;84.80
7447;DHT22;3765;47.962;7.952;2022-11-10T00:55:11;12.00;84.90
7447;DHT22;3765;47.962;7.952;2022-11-10T00:57:39;12.00;84.90
7447;DHT22;3765;47.962;7.952;2022-11-10T01:00:09;12.00;85.00
7447;DHT22;3765;47.962;7.952;2022-11-10T01:02:38;12.00;84.90
7447;DHT22;3765;47.962;7.952;2022-11-10T01:05:07;12.00;85.00
7447;DHT22;3765;47.962;7.952;2022-11-10T01:07:35;11.90;84.90
7447;DHT22;3765;47.962;7.952;2022-11-10T01:10:04;11.90;85.00
7447;DHT22;3765;47.962;7.952;2022-11-10T01:12:32;11.90;85.00
7447;DHT22;3765;47.962;7.952;2022-11-10T01:15:00;11.80;85.00
7447;DHT22;3765;47.962;7.952;2022-11-10T01:17:30;11.80;85.10
7447;DHT22;3765;47.962;7.952;2022-11-10T01:19:59;11.70;85.10
7447;DHT22;3765;47.962;7.952;2022-11-10T01:22:27;11.60;85.10
7447;DHT22;3765;47.962;7.952;2022-11-10T01:24:56;11.50;85.20
7447;DHT22;3765;47.962;7.952;2022-11-10T01:27:24;11.40;85.20
7447;DHT22;3765;47.962;7.952;2022-11-10T01:29:52;11.40;85.20
7447;DHT22;3765;47.962;7.952;2022-11-10T01:32:21;11.30;85.30
7447;DHT22;3765;47.962;7.952;2022-11-10T01:34:50;11.20;85.30
7447;DHT22;3765;47.962;7.952;2022-11-10T01:37:18;11.20;85.30
7447;DHT22;3765;47.962;7.952;2022-11-10T01:39:47;11.10;85.40
7447;DHT22;3765;47.962;7.952;2022-11-10T01:42:21;11.00;85.40
7447;DHT22;3765;47.962;7.952;2022-11-10T01:48:00;10.80;85.40
7447;DHT22;3765;47.962;7.952;2022-11-10T01:50:36;10.70;85.40
7447;DHT22;3765;47.962;7.952;2022-11-10T01:53:07;10.60;85.40
7447;DHT22;3765;47.962;7.952;2022-11-10T01:55:38;10.60;85.30
7447;DHT22;3765;47.962;7.952;2022-11-10T01:58:09;10.50;85.20
7447;DHT22;3765;47.962;7.952;2022-11-10T02:00:39;10.40;85.30
7447;DHT22;3765;47.962;7.952;2022-11-10T02:03:12;10.40;85.30
7447;DHT22;3765;47.962;7.952;2022-11-10T02:05:42;10.50;85.40
7447;DHT22;3765;47.962;7.952;2022-11-10T02:08:13;10.50;85.50
7447;DHT22;3765;47.962;7.952;2022-11-10T02:10:42;10.50;85.40
7447;DHT22;3765;47.962;7.952;2022-11-10T02:13:11;10.40;85.30
7447;DHT22;3765;47.962;7.952;2022-11-10T02:15:39;10.40;85.30
7447;DHT22;3765;47.962;7.952;2022-11-10T02:18:07;10.30;85.10
7447;DHT22;3765;47.962;7.952;2022-11-10T02:20:35;10.20;85.20
7447;DHT22;3765;47.962;7.952;2022-11-10T02:23:13;10.20;85.10
7447;DHT22;3765;47.962;7.952;2022-11-10T02:25:41;10.20;85.20
7447;DHT22;3765;47.962;7.952;2022-11-10T02:28:09;10.10;85.00
7447;DHT22;3765;47.962;7.952;2022-11-10T02:30:38;10.10;85.10
7447;DHT22;3765;47.962;7.952;2022-11-10T02:33:06;10.10;85.10
7447;DHT22;3765;47.962;7.952;2022-11-10T02:35:34;10.10;85.20
7447;DHT22;3765;47.962;7.952;2022-11-10T02:38:02;10.10;85.10
7447;DHT22;3765;47.962;7.952;2022-11-10T02:40:31;10.10;85.10
7447;DHT22;3765;47.962;7.952;2022-11-10T02:43:00;10.10;85.10
7447;DHT22;3765;47.962;7.952;2022-11-10T02:45:28;10.10;85.10
7447;DHT22;3765;47.962;7.952;2022-11-10T02:47:56;10.10;85.00
7447;DHT22;3765;47.962;7.952;2022-11-10T02:50:25;10.10;85.00
7447;DHT22;3765;47.962;7.952;2022-11-10T02:52:53;10.20;84.90
7447;DHT22;3765;47.962;7.952;2022-11-10T02:55:21;10.10;84.80
7447;DHT22;3765;47.962;7.952;2022-11-10T02:57:50;10.10;84.70
7447;DHT22;3765;47.962;7.952;2022-11-10T03:00:19;10.00;84.80
7447;DHT22;3765;47.962;7.952;2022-11-10T03:02:47;10.00;84.70
7447;DHT22;3765;47.962;7.952;2022-11-10T03:05:15;9.90;84.70
7447;DHT22;3765;47.962;7.952;2022-11-10T03:07:43;9.80;84.70
7447;DHT22;3765;47.962;7.952;2022-11-10T03:10:11;9.80;84.80
7447;DHT22;3765;47.962;7.952;2022-11-10T03:12:40;9.80;84.80
7447;DHT22;3765;47.962;7.952;2022-11-10T03:15:09;9.80;84.80
7447;DHT22;3765;47.962;7.952;2022-11-10T03:17:38;9.80;84.80
7447;DHT22;3765;47.962;7.952;2022-11-10T03:20:08;9.80;84.70
7447;DHT22;3765;47.962;7.952;2022-11-10T03:22:36;9.80;84.80
7447;DHT22;3765;47.962;7.952;2022-11-10T03:25:05;9.80;84.70
7447;DHT22;3765;47.962;7.952;2022-11-10T03:27:33;9.80;84.60
7447;DHT22;3765;47.962;7.952;2022-11-10T03:30:02;9.80;84.70
7447;DHT22;3765;47.962;7.952;2022-11-10T03:32:32;9.80;84.70
7447;DHT22;3765;47.962;7.952;2022-11-10T03:35:00;9.80;84.50
7447;DHT22;3765;47.962;7.952;2022-11-10T03:37:28;9.80;84.50
7447;DHT22;3765;47.962;7.952;2022-11-10T03:39:57;9.70;84.50
7447;DHT22;3765;47.962;7.952;2022-11-10T03:42:25;9.60;84.60
7447;DHT22;3765;47.962;7.952;2022-11-10T03:44:53;9.50;84.70
7447;DHT22;3765;47.962;7.952;2022-11-10T03:47:21;9.50;84.80
7447;DHT22;3765;47.962;7.952;2022-11-10T03:49:51;9.50;84.70
7447;DHT22;3765;47.962;7.952;2022-11-10T03:52:19;9.60;84.80
7447;DHT22;3765;47.962;7.952;2022-11-10T03:54:47;9.60;84.90
7447;DHT22;3765;47.962;7.952;2022-11-10T03:57:15;9.60;84.90
7447;DHT22;3765;47.962;7.952;2022-11-10T03:59:43;9.70;84.90
7447;DHT22;3765;47.962;7.952;2022-11-10T04:02:11;9.70;85.00
7447;DHT22;3765;47.962;7.952;2022-11-10T04:04:39;9.80;85.10
7447;DHT22;3765;47.962;7.952;2022-11-10T04:07:27;9.80;85.10
7447;DHT22;3765;47.962;7.952;2022-11-10T04:10:15;9.90;85.00
7447;DHT22;3765;47.962;7.952;2022-11-10T04:12:43;9.90;84.90
7447;DHT22;3765;47.962;7.952;2022-11-10T04:15:29;9.90;84.90
7447;DHT22;3765;47.962;7.952;2022-11-10T04:18:10;9.90;84.90
7447;DHT22;3765;47.962;7.952;2022-11-10T04:20:56;9.90;84.90
7447;DHT22;3765;47.962;7.952;2022-11-10T04:23:28;9.90;84.90
7447;DHT22;3765;47.962;7.952;2022-11-10T04:26:02;9.90;84.90
7447;DHT22;3765;47.962;7.952;2022-11-10T04:28:49;10.00;84.90
7447;DHT22;3765;47.962;7.952;2022-11-10T04:31:19;10.00;84.80
7447;DHT22;3765;47.962;7.952;2022-11-10T04:33:48;9.90;84.90
7447;DHT22;3765;47.962;7.952;2022-11-10T04:36:18;9.90;84.90
7447;DHT22;3765;47.962;7.952;2022-11-10T04:38:48;9.90;84.80
7447;DHT22;3765;47.962;7.952;2022-11-10T04:41:17;9.90;84.90
7447;DHT22;3765;47.962;7.952;2022-11-10T04:43:45;9.80;84.80
7447;DHT22;3765;47.962;7.952;2022-11-10T04:46:20;9.80;84.80
7447;DHT22;3765;47.962;7.952;2022-11-10T04:48:49;9.70;84.80
7447;DHT22;3765;47.962;7.952;2022-11-10T04:51:17;9.70;85.00
7447;DHT22;3765;47.962;7.952;2022-11-10T04:53:47;9.70;85.00
7447;DHT22;3765;47.962;7.952;2022-11-10T04:56:17;9.70;85.00
7447;DHT22;3765;47.962;7.952;2022-11-10T04:58:46;9.70;85.00
7447;DHT22;3765;47.962;7.952;2022-11-10T05:01:16;9.70;85.00
7447;DHT22;3765;47.962;7.952;2022-11-10T05:03:46;9.70;85.10
7447;DHT22;3765;47.962;7.952;2022-11-10T05:06:15;9.60;85.10
7447;DHT22;3765;47.962;7.952;2022-11-10T05:08:44;9.60;85.10
7447;DHT22;3765;47.962;7.952;2022-11-10T05:11:14;9.50;85.20
7447;DHT22;3765;47.962;7.952;2022-11-10T05:13:43;9.50;85.20
7447;DHT22;3765;47.962;7.952;2022-11-10T05:16:12;9.50;85.20
7447;DHT22;3765;47.962;7.952;2022-11-10T05:18:41;9.40;85.20
7447;DHT22;3765;47.962;7.952;2022-11-10T05:21:09;9.40;85.20
7447;DHT22;3765;47.962;7.952;2022-11-10T05:23:37;9.30;85.20
7447;DHT22;3765;47.962;7.952;2022-11-10T05:26:07;9.30;85.20
7447;DHT22;3765;47.962;7.952;2022-11-10T05:28:37;9.30;85.30
7447;DHT22;3765;47.962;7.952;2022-11-10T05:31:05;9.20;85.30
7447;DHT22;3765;47.962;7.952;2022-11-10T05:33:34;9.20;85.30
7447;DHT22;3765;47.962;7.952;2022-11-10T05:36:04;9.20;85.40
7447;DHT22;3765;47.962;7.952;2022-11-10T05:38:33;9.10;85.40
7447;DHT22;3765;47.962;7.952;2022-11-10T05:41:09;9.10;85.30
7447;DHT22;3765;47.962;7.952;2022-11-10T05:43:38;9.00;85.30
7447;DHT22;3765;47.962;7.952;2022-11-10T05:46:07;8.90;85.20
7447;DHT22;3765;47.962;7.952;2022-11-10T05:48:35;8.80;85.30
7447;DHT22;3765;47.962;7.952;2022-11-10T05:51:03;8.80;85.30
7447;DHT22;3765;47.962;7.952;2022-11-10T05:53:32;8.70;85.30
7447;DHT22;3765;47.962;7.952;2022-11-10T05:56:00;8.60;85.20
7447;DHT22;3765;47.962;7.952;2022-11-10T05:58:28;8.60;85.40
7447;DHT22;3765;47.962;7.952;2022-11-10T06:00:58;8.50;85.30
7447;DHT22;3765;47.962;7.952;2022-11-10T06:03:26;8.40;85.30
7447;DHT22;3765;47.962;7.952;2022-11-10T06:05:55;8.40;85.40
7447;DHT22;3765;47.962;7.952;2022-11-10T06:08:23;8.40;85.50
7447;DHT22;3765;47.962;7.952;2022-11-10T06:10:52;8.30;85.40
7447;DHT22;3765;47.962;7.952;2022-11-10T06:13:20;8.30;85.40
7447;DHT22;3765;47.962;7.952;2022-11-10T06:15:49;8.30;85.40
7447;DHT22;3765;47.962;7.952;2022-11-10T06:18:18;8.20;85.40
7447;DHT22;3765;47.962;7.952;2022-11-10T06:20:47;8.10;85.30
7447;DHT22;3765;47.962;7.952;2022-11-10T06:23:15;8.10;85.40
7447;DHT22;3765;47.962;7.952;2022-11-10T06:25:43;8.10;85.50
7447;DHT22;3765;47.962;7.952;2022-11-10T06:28:11;8.20;85.50
7447;DHT22;3765;47.962;7.952;2022-11-10T06:30:40;8.20;85.40
7447;DHT22;3765;47.962;7.952;2022-11-10T06:33:08;8.20;85.40
7447;DHT22;3765;47.962;7.952;2022-11-10T06:35:39;8.10;85.30
7447;DHT22;3765;47.962;7.952;2022-11-10T06:38:10;8.10;85.50
7447;DHT22;3765;47.962;7.952;2022-11-10T06:40:43;8.10;85.50
7447;DHT22;3765;47.962;7.952;2022-11-10T06:43:11;8.10;85.50
7447;DHT22;3765;47.962;7.952;2022-11-10T06:45:39;8.00;85.50
7447;DHT22;3765;47.962;7.952;2022-11-10T06:48:10;8.00;85.50
7447;DHT22;3765;47.962;7.952;2022-11-10T06:50:40;8.00;85.60
7447;DHT22;3765;47.962;7.952;2022-11-10T06:53:08;8.00;85.70
7447;DHT22;3765;47.962;7.952;2022-11-10T06:55:37;8.00;85.80
7447;DHT22;3765;47.962;7.952;2022-11-10T06:58:05;8.00;85.70
7447;DHT22;3765;47.962;7.952;2022-11-10T07:00:33;8.00;85.80
7447;DHT22;3765;47.962;7.952;2022-11-10T07:03:02;8.00;85.90
7447;DHT22;3765;47.962;7.952;2022-11-10T07:05:32;8.00;85.90
7447;DHT22;3765;47.962;7.952;2022-11-10T07:08:02;8.00;85.80
7447;DHT22;3765;47.962;7.952;2022-11-10T07:10:31;8.00;85.90
7447;DHT22;3765;47.962;7.952;2022-11-10T07:13:01;7.90;85.90
7447;DHT22;3765;47.962;7.952;2022-11-10T07:15:30;7.90;85.80
7447;DHT22;3765;47.962;7.952;2022-11-10T07:17:59;8.00;85.80
7447;DHT22;3765;47.962;7.952;2022-11-10T07:20:28;8.00;85.70
7447;DHT22;3765;47.962;7.952;2022-11-10T07:22:57;8.00;85.80
7447;DHT22;3765;47.962;7.952;2022-11-10T07:25:29;8.10;85.80
7447;DHT22;3765;47.962;7.952;2022-11-10T07:27:59;8.10;85.70
7447;DHT22;3765;47.962;7.952;2022-11-10T07:30:29;8.10;85.80
7447;DHT22;3765;47.962;7.952;2022-11-10T07:32:59;8.10;85.80
7447;DHT22;3765;47.962;7.952;2022-11-10T07:35:28;8.20;85.60
7447;DHT22;3765;47.962;7.952;2022-11-10T07:38:00;8.30;85.70
7447;DHT22;3765;47.962;7.952;2022-11-10T07:40:30;8.30;85.60
7447;DHT22;3765;47.962;7.952;2022-11-10T07:42:58;8.30;85.60
7447;DHT22;3765;47.962;7.952;2022-11-10T07:45:27;8.40;85.50
7447;DHT22;3765;47.962;7.952;2022-11-10T07:48:00;8.40;85.50
7447;DHT22;3765;47.962;7.952;2022-11-10T07:50:29;8.60;85.50
7447;DHT22;3765;47.962;7.952;2022-11-10T07:53:05;8.70;85.40
7447;DHT22;3765;47.962;7.952;2022-11-10T07:55:37;8.70;85.40
7447;DHT22;3765;47.962;7.952;2022-11-10T07:58:05;8.80;85.40
7447;DHT22;3765;47.962;7.952;2022-11-10T08:00:35;8.90;85.40
7447;DHT22;3765;47.962;7.952;2022-11-10T08:03:05;9.00;85.30
7447;DHT22;3765;47.962;7.952;2022-11-10T08:05:34;9.10;85.30
7447;DHT22;3765;47.962;7.952;2022-11-10T08:08:03;9.20;85.20
7447;DHT22;3765;47.962;7.952;2022-11-10T08:10:32;9.30;85.20
7447;DHT22;3765;47.962;7.952;2022-11-10T08:13:04;9.40;85.20
7447;DHT22;3765;47.962;7.952;2022-11-10T08:15:34;9.60;84.90
7447;DHT22;3765;47.962;7.952;2022-11-10T08:18:03;9.70;84.90
7447;DHT22;3765;47.962;7.952;2022-11-10T08:20:32;9.80;84.80
7447;DHT22;3765;47.962;7.952;2022-11-10T08:23:02;9.90;84.60
7447;DHT22;3765;47.962;7.952;2022-11-10T08:25:32;10.00;84.50
7447;DHT22;3765;47.962;7.952;2022-11-10T08:28:04;10.20;84.30
7447;DHT22;3765;47.962;7.952;2022-11-10T08:30:33;10.30;84.20
7447;DHT22;3765;47.962;7.952;2022-11-10T08:33:03;10.30;84.10
7447;DHT22;3765;47.962;7.952;2022-11-10T08:35:35;10.40;84.00
7447;DHT22;3765;47.962;7.952;2022-11-10T08:38:08;10.50;83.90
7447;DHT22;3765;47.962;7.952;2022-11-10T08:40:36;10.60;83.80
7447;DHT22;3765;47.962;7.952;2022-11-10T08:43:06;10.80;83.60
7447;DHT22;3765;47.962;7.952;2022-11-10T08:45:36;10.90;83.40
7447;DHT22;3765;47.962;7.952;2022-11-10T08:48:06;11.00;83.20
7447;DHT22;3765;47.962;7.952;2022-11-10T08:50:34;11.10;82.90
7447;DHT22;3765;47.962;7.952;2022-11-10T08:53:04;11.20;82.60
7447;DHT22;3765;47.962;7.952;2022-11-10T08:55:32;11.30;82.40
7447;DHT22;3765;47.962;7.952;2022-11-10T08:58:03;11.30;82.30
7447;DHT22;3765;47.962;7.952;2022-11-10T09:00:34;11.40;82.10
7447;DHT22;3765;47.962;7.952;2022-11-10T09:03:04;11.60;82.00
7447;DHT22;3765;47.962;7.952;2022-11-10T09:05:33;11.70;81.80
7447;DHT22;3765;47.962;7.952;2022-11-10T09:08:03;11.80;81.60
7447;DHT22;3765;47.962;7.952;2022-11-10T09:10:33;11.80;81.30
7447;DHT22;3765;47.962;7.952;2022-11-10T09:13:03;11.80;81.10
7447;DHT22;3765;47.962;7.952;2022-11-10T09:15:34;11.80;81.00
7447;DHT22;3765;47.962;7.952;2022-11-10T09:18:03;11.90;80.90
7447;DHT22;3765;47.962;7.952;2022-11-10T09:20:33;11.90;80.80
7447;DHT22;3765;47.962;7.952;2022-11-10T09:23:05;12.00;80.70
7447;DHT22;3765;47.962;7.952;2022-11-10T09:25:34;12.10;80.60
7447;DHT22;3765;47.962;7.952;2022-11-10T09:28:03;12.20;80.40
7447;DHT22;3765;47.962;7.952;2022-11-10T09:30:32;12.20;80.40
7447;DHT22;3765;47.962;7.952;2022-11-10T09:33:00;12.20;80.20
7447;DHT22;3765;47.962;7.952;2022-11-10T09:35:29;12.30;79.80
7447;DHT22;3765;47.962;7.952;2022-11-10T09:37:57;12.30;79.70
7447;DHT22;3765;47.962;7.952;2022-11-10T09:40:32;12.40;79.50
7447;DHT22;3765;47.962;7.952;2022-11-10T09:43:11;12.50;78.90
7447;DHT22;3765;47.962;7.952;2022-11-10T09:45:46;12.50;78.70
7447;DHT22;3765;47.962;7.952;2022-11-10T09:48:21;12.60;78.40
7447;DHT22;3765;47.962;7.952;2022-11-10T09:50:54;12.70;78.10
7447;DHT22;3765;47.962;7.952;2022-11-10T09:53:26;12.70;77.50
7447;DHT22;3765;47.962;7.952;2022-11-10T09:55:58;12.70;77.10
7447;DHT22;3765;47.962;7.952;2022-11-10T09:58:33;12.60;77.10
7447;DHT22;3765;47.962;7.952;2022-11-10T10:01:14;12.70;76.90
7447;DHT22;3765;47.962;7.952;2022-11-10T10:03:47;12.80;76.90
7447;DHT22;3765;47.962;7.952;2022-11-10T10:06:16;12.90;76.90
7447;DHT22;3765;47.962;7.952;2022-11-10T10:08:56;12.90;76.70
7447;DHT22;3765;47.962;7.952;2022-11-10T10:11:35;13.00;76.60
7447;DHT22;3765;47.962;7.952;2022-11-10T10:14:23;13.10;76.80
7447;DHT22;3765;47.962;7.952;2022-11-10T10:16:59;13.10;76.90
7447;DHT22;3765;47.962;7.952;2022-11-10T10:19:36;13.10;76.70
7447;DHT22;3765;47.962;7.952;2022-11-10T10:25:11;13.30;76.90
7447;DHT22;3765;47.962;7.952;2022-11-10T10:27:43;13.50;76.70
7447;DHT22;3765;47.962;7.952;2022-11-10T10:30:17;13.50;76.50
7447;DHT22;3765;47.962;7.952;2022-11-10T10:32:46;13.50;76.50
7447;DHT22;3765;47.962;7.952;2022-11-10T10:35:16;13.50;76.40
7447;DHT22;3765;47.962;7.952;2022-11-10T10:37:49;13.50;76.30
7447;DHT22;3765;47.962;7.952;2022-11-10T10:40:23;13.60;76.00
7447;DHT22;3765;47.962;7.952;2022-11-10T10:42:51;13.60;75.90
7447;DHT22;3765;47.962;7.952;2022-11-10T10:45:23;13.80;75.80
7447;DHT22;3765;47.962;7.952;2022-11-10T10:47:55;13.70;75.50
7447;DHT22;3765;47.962;7.952;2022-11-10T10:50:30;13.80;75.60
7447;DHT22;3765;47.962;7.952;2022-11-10T10:53:13;13.80;75.10
7447;DHT22;3765;47.962;7.952;2022-11-10T10:55:47;13.90;74.90
7447;DHT22;3765;47.962;7.952;2022-11-10T10:58:22;13.90;74.30
7447;DHT22;3765;47.962;7.952;2022-11-10T11:00:54;14.00;74.30
7447;DHT22;3765;47.962;7.952;2022-11-10T11:03:28;14.00;73.90
7447;DHT22;3765;47.962;7.952;2022-11-10T11:06:05;14.10;73.90
7447;DHT22;3765;47.962;7.952;2022-11-10T11:08:33;14.10;73.70
7447;DHT22;3765;47.962;7.952;2022-11-10T11:11:10;14.30;73.00
7447;DHT22;3765;47.962;7.952;2022-11-10T11:13:38;14.30;73.00
7447;DHT22;3765;47.962;7.952;2022-11-10T11:16:08;14.40;72.70
7447;DHT22;3765;47.962;7.952;2022-11-10T11:18:39;14.60;72.60
7447;DHT22;3765;47.962;7.952;2022-11-10T11:36:22;14.60;70.10
7447;DHT22;3765;47.962;7.952;2022-11-10T11:39:02;14.70;70.70
7447;DHT22;3765;47.962;7.952;2022-11-10T11:41:37;14.90;70.50
7447;DHT22;3765;47.962;7.952;2022-11-10T11:44:35;15.00;70.50
7447;DHT22;3765;47.962;7.952;2022-11-10T11:47:22;15.10;70.30
7447;DHT22;3765;47.962;7.952;2022-11-10T11:50:06;15.30;69.80
7447;DHT22;3765;47.962;7.952;2022-11-10T11:52:46;15.20;69.80
7447;DHT22;3765;47.962;7.952;2022-11-10T11:55:28;15.30;69.70
7447;DHT22;3765;47.962;7.952;2022-11-10T11:58:16;15.60;69.50
7447;DHT22;3765;47.962;7.952;2022-11-10T12:00:59;15.70;68.60
7447;DHT22;3765;47.962;7.952;2022-11-10T12:04:01;15.70;68.30
7447;DHT22;3765;47.962;7.952;2022-11-10T12:06:48;15.70;67.60
7447;DHT22;3765;47.962;7.952;2022-11-10T12:09:30;15.70;67.50
7447;DHT22;3765;47.962;7.952;2022-11-10T12:12:16;15.80;67.00
7447;DHT22;3765;47.962;7.952;2022-11-10T12:14:55;15.90;66.70
7447;DHT22;3765;47.962;7.952;2022-11-10T12:17:34;16.10;66.40
7447;DHT22;3765;47.962;7.952;2022-11-10T12:20:19;16.20;66.00
7447;DHT22;3765;47.962;7.952;2022-11-10T12:22:56;16.30;65.60
7447;DHT22;3765;47.962;7.952;2022-11-10T12:25:33;16.30;65.30
7447;DHT22;3765;47.962;7.952;2022-11-10T12:28:11;16.40;64.80
7447;DHT22;3765;47.962;7.952;2022-11-10T12:30:43;16.40;64.40
7447;DHT22;3765;47.962;7.952;2022-11-10T12:33:19;16.30;64.20
7447;DHT22;3765;47.962;7.952;2022-11-10T12:35:51;16.30;64.50
7447;DHT22;3765;47.962;7.952;2022-11-10T12:38:25;16.50;64.70
7447;DHT22;3765;47.962;7.952;2022-11-10T12:41:02;16.50;64.40
7447;DHT22;3765;47.962;7.952;2022-11-10T12:43:36;16.50;64.90
7447;DHT22;3765;47.962;7.952;2022-11-10T12:46:08;16.60;65.00
7447;DHT22;3765;47.962;7.952;2022-11-10T12:48:44;16.70;64.80
7447;DHT22;3765;47.962;7.952;2022-11-10T12:51:23;16.70;64.90
7447;DHT22;3765;47.962;7.952;2022-11-10T12:53:55;16.80;64.50
7447;DHT22;3765;47.962;7.952;2022-11-10T12:56:29;16.60;64.50
7447;DHT22;3765;47.962;7.952;2022-11-10T12:59:23;16.80;64.80
7447;DHT22;3765;47.962;7.952;2022-11-10T13:01:58;16.80;64.50
7447;DHT22;3765;47.962;7.952;2022-11-10T13:04:28;17.00;64.90
7447;DHT22;3765;47.962;7.952;2022-11-10T13:06:59;17.00;64.30
7447;DHT22;3765;47.962;7.952;2022-11-10T13:09:29;17.00;64.50
7447;DHT22;3765;47.962;7.952;2022-11-10T13:12:17;17.00;64.80
7447;DHT22;3765;47.962;7.952;2022-11-10T13:14:46;17.00;64.30
7447;DHT22;3765;47.962;7.952;2022-11-10T13:17:51;17.00;64.60
7447;DHT22;3765;47.962;7.952;2022-11-10T13:20:46;17.20;64.60
7447;DHT22;3765;47.962;7.952;2022-11-10T13:23:26;17.30;64.70
7447;DHT22;3765;47.962;7.952;2022-11-10T13:25:57;17.30;64.40
7447;DHT22;3765;47.962;7.952;2022-11-10T13:29:01;17.50;64.50
7447;DHT22;3765;47.962;7.952;2022-11-10T13:31:40;17.60;64.50
7447;DHT22;3765;47.962;7.952;2022-11-10T13:34:30;17.60;63.90
7447;DHT22;3765;47.962;7.952;2022-11-10T13:37:02;17.50;64.10
7447;DHT22;3765;47.962;7.952;2022-11-10T13:39:33;17.80;64.10
7447;DHT22;3765;47.962;7.952;2022-11-10T13:42:15;17.70;63.30
7447;DHT22;3765;47.962;7.952;2022-11-10T13:44:45;17.60;63.90
7447;DHT22;3765;47.962;7.952;2022-11-10T13:50:24;17.80;63.70
7447;DHT22;3765;47.962;7.952;2022-11-10T13:53:07;17.80;63.60
7447;DHT22;3765;47.962;7.952;2022-11-10T13:55:49;17.90;63.10
7447;DHT22;3765;47.962;7.952;2022-11-10T13:58:23;17.90;63.40
7447;DHT22;3765;47.962;7.952;2022-11-10T14:01:22;18.10;62.90
7447;DHT22;3765;47.962;7.952;2022-11-10T14:03:54;18.20;62.80
7447;DHT22;3765;47.962;7.952;2022-11-10T14:06:37;18.00;62.70
7447;DHT22;3765;47.962;7.952;2022-11-10T14:09:20;18.10;62.80
7447;DHT22;3765;47.962;7.952;2022-11-10T14:11:55;17.90;62.70
7447;DHT22;3765;47.962;7.952;2022-11-10T14:14:30;18.10;62.60
7447;DHT22;3765;47.962;7.952;2022-11-10T14:17:02;18.20;62.40
7447;DHT22;3765;47.962;7.952;2022-11-10T14:19:37;18.00;62.20
7447;DHT22;3765;47.962;7.952;2022-11-10T14:22:18;17.60;62.50
7447;DHT22;3765;47.962;7.952;2022-11-10T14:24:53;17.70;62.60
7447;DHT22;3765;47.962;7.952;2022-11-10T14:27:25;17.50;62.40
7447;DHT22;3765;47.962;7.952;2022-11-10T14:30:18;17.40;62.90
7447;DHT22;3765;47.962;7.952;2022-11-10T14:32:56;17.10;62.90
7447;DHT22;3765;47.962;7.952;2022-11-10T14:35:27;16.50;63.50
7447;DHT22;3765;47.962;7.952;2022-11-10T14:38:01;16.50;64.30
7447;DHT22;3765;47.962;7.952;2022-11-10T14:40:30;16.30;64.10
7447;DHT22;3765;47.962;7.952;2022-11-10T14:42:59;16.10;64.50
7447;DHT22;3765;47.962;7.952;2022-11-10T14:45:27;15.80;64.90
7447;DHT22;3765;47.962;7.952;2022-11-10T14:47:58;15.60;65.20
7447;DHT22;3765;47.962;7.952;2022-11-10T14:50:28;15.40;65.60
7447;DHT22;3765;47.962;7.952;2022-11-10T14:53:01;15.20;65.90
7447;DHT22;3765;47.962;7.952;2022-11-10T14:55:32;15.10;66.40
7447;DHT22;3765;47.962;7.952;2022-11-10T14:58:03;14.90;66.60
7447;DHT22;3765;47.962;7.952;2022-11-10T15:00:35;14.60;67.00
7447;DHT22;3765;47.962;7.952;2022-11-10T15:03:06;14.30;67.40
7447;DHT22;3765;47.962;7.952;2022-11-10T15:05:35;14.20;67.90
7447;DHT22;3765;47.962;7.952;2022-11-10T15:08:04;14.00;68.30
7447;DHT22;3765;47.962;7.952;2022-11-10T15:10:44;13.90;68.70
7447;DHT22;3765;47.962;7.952;2022-11-10T15:13:18;13.70;69.00
7447;DHT22;3765;47.962;7.952;2022-11-10T15:15:48;13.60;69.30
7447;DHT22;3765;47.962;7.952;2022-11-10T15:18:28;13.40;69.40
7447;DHT22;3765;47.962;7.952;2022-11-10T15:20:59;13.30;69.80
7447;DHT22;3765;47.962;7.952;2022-11-10T15:23:31;13.20;69.90
7447;DHT22;3765;47.962;7.952;2022-11-10T15:25:59;13.00;70.30
7447;DHT22;3765;47.962;7.952;2022-11-10T15:28:29;12.90;70.50
7447;DHT22;3765;47.962;7.952;2022-11-10T15:30:59;12.80;70.90
7447;DHT22;3765;47.962;7.952;2022-11-10T15:33:31;12.70;71.10
7447;DHT22;3765;47.962;7.952;2022-11-10T15:36:14;12.70;71.20
7447;DHT22;3765;47.962;7.952;2022-11-10T15:38:43;12.50;71.40
7447;DHT22;3765;47.962;7.952;2022-11-10T15:41:13;12.40;71.60
7447;DHT22;3765;47.962;7.952;2022-11-10T15:43:41;12.30;71.80
7447;DHT22;3765;47.962;7.952;2022-11-10T15:46:12;12.30;72.10
7447;DHT22;3765;47.962;7.952;2022-11-10T15:48:47;12.20;72.20
7447;DHT22;3765;47.962;7.952;2022-11-10T15:51:18;12.20;72.30
7447;DHT22;3765;47.962;7.952;2022-11-10T15:53:52;12.10;72.50
7447;DHT22;3765;47.962;7.952;2022-11-10T15:56:22;12.00;72.70
7447;DHT22;3765;47.962;7.952;2022-11-10T15:58:51;11.80;72.90
7447;DHT22;3765;47.962;7.952;2022-11-10T16:01:27;11.80;73.10
7447;DHT22;3765;47.962;7.952;2022-11-10T16:04:01;11.70;73.40
7447;DHT22;3765;47.962;7.952;2022-11-10T16:06:30;11.60;73.40
7447;DHT22;3765;47.962;7.952;2022-11-10T16:08:58;11.50;73.70
7447;DHT22;3765;47.962;7.952;2022-11-10T16:11:26;11.50;73.80
7447;DHT22;3765;47.962;7.952;2022-11-10T16:13:56;11.40;74.00
7447;DHT22;3765;47.962;7.952;2022-11-10T16:16:24;11.30;74.00
7447;DHT22;3765;47.962;7.952;2022-11-10T16:18:53;11.30;74.20
7447;DHT22;3765;47.962;7.952;2022-11-10T16:21:23;11.20;74.50
7447;DHT22;3765;47.962;7.952;2022-11-10T16:23:52;11.10;74.70
7447;DHT22;3765;47.962;7.952;2022-11-10T16:26:22;11.10;74.90
7447;DHT22;3765;47.962;7.952;2022-11-10T16:28:51;11.00;75.10
7447;DHT22;3765;47.962;7.952;2022-11-10T16:31:20;10.90;75.30
7447;DHT22;3765;47.962;7.952;2022-11-10T16:33:48;10.90;75.50
7447;DHT22;3765;47.962;7.952;2022-11-10T16:36:24;10.90;75.50
7447;DHT22;3765;47.962;7.952;2022-11-10T16:38:53;10.80;75.70
7447;DHT22;3765;47.962;7.952;2022-11-10T16:41:22;10.80;76.00
7447;DHT22;3765;47.962;7.952;2022-11-10T16:43:50;10.80;76.10
7447;DHT22;3765;47.962;7.952;2022-11-10T16:46:21;10.80;76.30
7447;DHT22;3765;47.962;7.952;2022-11-10T16:48:54;10.90;76.40
7447;DHT22;3765;47.962;7.952;2022-11-10T16:51:30;10.80;76.50
7447;DHT22;3765;47.962;7.952;2022-11-10T16:54:01;10.90;76.70
7447;DHT22;3765;47.962;7.952;2022-11-10T16:56:29;11.00;76.80
7447;DHT22;3765;47.962;7.952;2022-11-10T16:58:57;11.10;77.00
7447;DHT22;3765;47.962;7.952;2022-11-10T17:01:28;11.20;77.00